sensor_id;sensor_type;location;lat;lon;timestamp;temperature;humidity
36132;DHT22;22185;48.738;9.324;2022-08-02T00:00:44;17.90;99.90
36132;DHT22;22185;48.738;9.324;2022-08-02T00:02:46;17.90;99.90
36132;DHT22;22185;48.738;9.324;2022-08-02T00:04:49;17.80;99.90
36132;DHT22;22185;48.738;9.324;2022-08-02T00:06:51;17.80;99.90
36132;DHT22;22185;48.738;9.324;2022-08-02T00:08:53;17.80;99.90
36132;DHT22;22185;48.738;9.324;2022-08-02T00:10:55;17.80;99.90
36132;DHT22;22185;48.738;9.324;2022-08-02T00:12:57;17.80;99.90
36132;DHT22;22185;48.738;9.324;2022-08-02T00:14:59;17.80;99.90
36132;DHT22;22185;48.738;9.324;2022-08-02T00:17:01;17.80;99.90
36132;DHT22;22185;48.738;9.324;2022-08-02T00:19:03;17.80;99.90
36132;DHT22;22185;48.738;9.324;2022-08-02T00:21:04;17.70;99.90
36132;DHT22;22185;48.738;9.324;2022-08-02T00:23:08;17.70;99.90
36132;DHT22;22185;48.738;9.324;2022-08-02T00:25:10;17.70;99.90
36132;DHT22;22185;48.738;9.324;2022-08-02T00:27:12;17.60;99.90
36132;DHT22;22185;48.738;9.324;2022-08-02T00:29:13;17.60;99.90
36132;DHT22;22185;48.738;9.324;2022-08-02T00:31:15;17.60;99.90
36132;DHT22;22185;48.738;9.324;2022-08-02T00:33:17;17.60;99.90
36132;DHT22;22185;48.738;9.324;2022-08-02T00:35:39;17.60;99.90
36132;DHT22;22185;48.738;9.324;2022-08-02T00:37:41;17.60;99.90
36132;DHT22;22185;48.738;9.324;2022-08-02T00:39:43;17.60;99.90
36132;DHT22;22185;48.738;9.324;2022-08-02T00:41:47;17.60;99.90
36132;DHT22;22185;48.738;9.324;2022-08-02T00:43:51;17.50;99.90
36132;DHT22;22185;48.738;9.324;2022-08-02T00:45:53;17.50;99.90
36132;DHT22;22185;48.738;9.324;2022-08-02T00:48:05;17.50;99.90
36132;DHT22;22185;48.738;9.324;2022-08-02T00:50:07;17.50;99.90
36132;DHT22;22185;48.738;9.324;2022-08-02T00:52:09;17.50;99.90
36132;DHT22;22185;48.738;9.324;2022-08-02T00:54:11;17.50;99.90
36132;DHT22;22185;48.738;9.324;2022-08-02T00:56:15;17.50;99.90
36132;DHT22;22185;48.738;9.324;2022-08-02T00:58:16;17.50;99.90
36132;DHT22;22185;48.738;9.324;2022-08-02T01:00:21;17.50;99.90
36132;DHT22;22185;48.738;9.324;2022-08-02T01:02:30;17.50;99.90
36132;DHT22;22185;48.738;9.324;2022-08-02T01:04:32;17.40;99.90
36132;DHT22;22185;48.738;9.324;2022-08-02T01:06:34;17.40;99.90
36132;DHT22;22185;48.738;9.324;2022-08-02T01:08:39;17.40;99.90
36132;DHT22;22185;48.738;9.324;2022-08-02T01:10:41;17.40;99.90
36132;DHT22;22185;48.738;9.324;2022-08-02T01:12:43;17.40;99.90
36132;DHT22;22185;48.738;9.324;2022-08-02T01:14:48;17.40;99.90
36132;DHT22;22185;48.738;9.324;2022-08-02T01:19:53;17.40;99.90
36132;DHT22;22185;48.738;9.324;2022-08-02T01:24:29;17.40;99.90
36132;DHT22;22185;48.738;9.324;2022-08-02T01:31:32;17.40;99.90
36132;DHT22;22185;48.738;9.324;2022-08-02T01:33:40;17.40;99.90
36132;DHT22;22185;48.738;9.324;2022-08-02T01:35:48;17.30;99.90
36132;DHT22;22185;48.738;9.324;2022-08-02T01:37:57;17.30;99.90
36132;DHT22;22185;48.738;9.324;2022-08-02T01:40:07;17.40;99.90
36132;DHT22;22185;48.738;9.324;2022-08-02T01:42:10;17.40;99.90
36132;DHT22;22185;48.738;9.324;2022-08-02T01:44:14;17.30;99.90
36132;DHT22;22185;48.738;9.324;2022-08-02T01:46:29;17.40;99.90
36132;DHT22;22185;48.738;9.324;2022-08-02T01:48:33;17.50;99.90
36132;DHT22;22185;48.738;9.324;2022-08-02T01:50:36;17.30;99.90
36132;DHT22;22185;48.738;9.324;2022-08-02T01:52:46;17.30;99.90
36132;DHT22;22185;48.738;9.324;2022-08-02T01:56:56;17.30;99.90
36132;DHT22;22185;48.738;9.324;2022-08-02T01:59:00;17.30;99.90
36132;DHT22;22185;48.738;9.324;2022-08-02T02:01:03;17.30;99.90
36132;DHT22;22185;48.738;9.324;2022-08-02T02:03:11;17.20;99.90
36132;DHT22;22185;48.738;9.324;2022-08-02T02:05:19;17.20;99.90
36132;DHT22;22185;48.738;9.324;2022-08-02T02:07:21;17.10;99.90
36132;DHT22;22185;48.738;9.324;2022-08-02T02:09:27;17.10;99.90
36132;DHT22;22185;48.738;9.324;2022-08-02T02:11:30;17.10;99.90
36132;DHT22;22185;48.738;9.324;2022-08-02T02:13:54;17.10;99.90
36132;DHT22;22185;48.738;9.324;2022-08-02T02:16:01;17.20;99.90
36132;DHT22;22185;48.738;9.324;2022-08-02T02:18:05;17.20;99.90
36132;DHT22;22185;48.738;9.324;2022-08-02T02:20:17;17.20;99.90
36132;DHT22;22185;48.738;9.324;2022-08-02T02:22:19;17.20;99.90
36132;DHT22;22185;48.738;9.324;2022-08-02T02:24:26;17.20;99.90
36132;DHT22;22185;48.738;9.324;2022-08-02T02:26:30;17.20;99.90
36132;DHT22;22185;48.738;9.324;2022-08-02T02:28:34;17.10;99.90
36132;DHT22;22185;48.738;9.324;2022-08-02T02:30:42;17.10;99.90
36132;DHT22;22185;48.738;9.324;2022-08-02T02:32:49;17.10;99.90
36132;DHT22;22185;48.738;9.324;2022-08-02T02:34:54;17.10;99.90
36132;DHT22;22185;48.738;9.324;2022-08-02T02:37:02;17.00;99.90
36132;DHT22;22185;48.738;9.324;2022-08-02T02:39:05;17.10;99.90
36132;DHT22;22185;48.738;9.324;2022-08-02T02:41:15;17.10;99.90
36132;DHT22;22185;48.738;9.324;2022-08-02T02:43:19;17.20;99.90
36132;DHT22;22185;48.738;9.324;2022-08-02T02:45:24;17.20;99.90
36132;DHT22;22185;48.738;9.324;2022-08-02T02:47:28;17.20;99.90
36132;DHT22;22185;48.738;9.324;2022-08-02T02:49:44;17.20;99.90
36132;DHT22;22185;48.738;9.324;2022-08-02T02:51:47;17.20;99.90
36132;DHT22;22185;48.738;9.324;2022-08-02T02:53:50;17.20;99.90
36132;DHT22;22185;48.738;9.324;2022-08-02T02:56:12;17.20;99.90
36132;DHT22;22185;48.738;9.324;2022-08-02T02:58:14;17.20;99.90
36132;DHT22;22185;48.738;9.324;2022-08-02T03:00:16;17.10;99.90
36132;DHT22;22185;48.738;9.324;2022-08-02T03:02:18;17.10;99.90
36132;DHT22;22185;48.738;9.324;2022-08-02T03:04:21;17.10;99.90
36132;DHT22;22185;48.738;9.324;2022-08-02T03:06:24;17.10;99.90
36132;DHT22;22185;48.738;9.324;2022-08-02T03:08:26;17.10;99.90
36132;DHT22;22185;48.738;9.324;2022-08-02T03:10:28;17.10;99.90
36132;DHT22;22185;48.738;9.324;2022-08-02T03:12:31;17.10;99.90
36132;DHT22;22185;48.738;9.324;2022-08-02T03:14:42;17.10;99.90
36132;DHT22;22185;48.738;9.324;2022-08-02T03:16:51;17.00;99.90
36132;DHT22;22185;48.738;9.324;2022-08-02T03:18:55;17.00;99.90
36132;DHT22;22185;48.738;9.324;2022-08-02T03:21:00;17.00;99.90
36132;DHT22;22185;48.738;9.324;2022-08-02T03:23:02;17.00;99.90
36132;DHT22;22185;48.738;9.324;2022-08-02T03:25:06;17.00;99.90
36132;DHT22;22185;48.738;9.324;2022-08-02T03:27:08;16.90;99.90
36132;DHT22;22185;48.738;9.324;2022-08-02T03:29:09;16.90;99.90
36132;DHT22;22185;48.738;9.324;2022-08-02T03:31:11;16.80;99.90
36132;DHT22;22185;48.738;9.324;2022-08-02T03:33:14;16.80;99.90
36132;DHT22;22185;48.738;9.324;2022-08-02T03:35:18;16.80;99.90
36132;DHT22;22185;48.738;9.324;2022-08-02T03:37:25;16.70;99.90
36132;DHT22;22185;48.738;9.324;2022-08-02T03:39:31;16.70;99.90
36132;DHT22;22185;48.738;9.324;2022-08-02T03:41:35;16.70;99.90
36132;DHT22;22185;48.738;9.324;2022-08-02T03:43:38;16.80;99.90
36132;DHT22;22185;48.738;9.324;2022-08-02T03:45:46;16.80;99.90
36132;DHT22;22185;48.738;9.324;2022-08-02T03:47:49;16.80;99.90
36132;DHT22;22185;48.738;9.324;2022-08-02T03:49:55;16.80;99.90
36132;DHT22;22185;48.738;9.324;2022-08-02T03:51:58;16.80;99.90
36132;DHT22;22185;48.738;9.324;2022-08-02T03:54:01;16.70;99.90
36132;DHT22;22185;48.738;9.324;2022-08-02T03:56:04;16.70;99.90
36132;DHT22;22185;48.738;9.324;2022-08-02T03:58:07;16.70;99.90
36132;DHT22;22185;48.738;9.324;2022-08-02T04:00:11;16.80;99.90
36132;DHT22;22185;48.738;9.324;2022-08-02T04:02:15;16.80;99.90
36132;DHT22;22185;48.738;9.324;2022-08-02T04:04:17;16.80;99.90
36132;DHT22;22185;48.738;9.324;2022-08-02T04:06:19;16.80;99.90
36132;DHT22;22185;48.738;9.324;2022-08-02T04:08:27;16.80;99.90
36132;DHT22;22185;48.738;9.324;2022-08-02T04:10:38;16.80;99.90
36132;DHT22;22185;48.738;9.324;2022-08-02T04:12:58;16.90;99.90
36132;DHT22;22185;48.738;9.324;2022-08-02T04:15:01;16.90;99.90
36132;DHT22;22185;48.738;9.324;2022-08-02T04:17:07;16.80;99.90
36132;DHT22;22185;48.738;9.324;2022-08-02T04:19:14;16.80;99.90
36132;DHT22;22185;48.738;9.324;2022-08-02T04:21:18;16.80;99.90
36132;DHT22;22185;48.738;9.324;2022-08-02T04:23:22;16.90;99.90
36132;DHT22;22185;48.738;9.324;2022-08-02T04:25:27;16.90;99.90
36132;DHT22;22185;48.738;9.324;2022-08-02T04:27:41;16.90;99.90
36132;DHT22;22185;48.738;9.324;2022-08-02T04:30:04;17.00;99.90
36132;DHT22;22185;48.738;9.324;2022-08-02T04:32:07;17.00;99.90
36132;DHT22;22185;48.738;9.324;2022-08-02T04:34:09;17.00;99.90
36132;DHT22;22185;48.738;9.324;2022-08-02T04:36:16;17.00;99.90
36132;DHT22;22185;48.738;9.324;2022-08-02T04:38:32;17.10;99.90
36132;DHT22;22185;48.738;9.324;2022-08-02T04:40:34;17.10;99.90
36132;DHT22;22185;48.738;9.324;2022-08-02T04:42:37;17.10;99.90
36132;DHT22;22185;48.738;9.324;2022-08-02T04:44:42;17.10;99.90
36132;DHT22;22185;48.738;9.324;2022-08-02T04:46:44;17.20;99.90
36132;DHT22;22185;48.738;9.324;2022-08-02T04:48:46;17.20;99.90
36132;DHT22;22185;48.738;9.324;2022-08-02T04:50:48;17.20;99.90
36132;DHT22;22185;48.738;9.324;2022-08-02T04:52:50;17.20;99.90
36132;DHT22;22185;48.738;9.324;2022-08-02T04:54:52;17.30;99.90
36132;DHT22;22185;48.738;9.324;2022-08-02T04:56:54;17.20;99.90
36132;DHT22;22185;48.738;9.324;2022-08-02T04:58:56;17.30;99.90
36132;DHT22;22185;48.738;9.324;2022-08-02T05:00:58;17.30;99.90
36132;DHT22;22185;48.738;9.324;2022-08-02T05:03:00;17.20;99.90
36132;DHT22;22185;48.738;9.324;2022-08-02T05:05:02;17.30;99.90
36132;DHT22;22185;48.738;9.324;2022-08-02T05:07:10;17.30;99.90
36132;DHT22;22185;48.738;9.324;2022-08-02T05:09:12;17.30;99.90
36132;DHT22;22185;48.738;9.324;2022-08-02T05:11:14;17.30;99.90
36132;DHT22;22185;48.738;9.324;2022-08-02T05:13:16;17.30;99.90
36132;DHT22;22185;48.738;9.324;2022-08-02T05:15:18;17.30;99.90
36132;DHT22;22185;48.738;9.324;2022-08-02T05:17:22;17.40;99.90
36132;DHT22;22185;48.738;9.324;2022-08-02T05:19:24;17.50;99.90
36132;DHT22;22185;48.738;9.324;2022-08-02T05:21:25;17.50;99.90
36132;DHT22;22185;48.738;9.324;2022-08-02T05:23:30;17.60;99.90
36132;DHT22;22185;48.738;9.324;2022-08-02T05:25:33;17.60;99.90
36132;DHT22;22185;48.738;9.324;2022-08-02T05:27:35;17.70;99.90
36132;DHT22;22185;48.738;9.324;2022-08-02T05:29:37;17.70;99.90
36132;DHT22;22185;48.738;9.324;2022-08-02T05:31:54;17.70;99.90
36132;DHT22;22185;48.738;9.324;2022-08-02T05:33:59;17.80;99.90
36132;DHT22;22185;48.738;9.324;2022-08-02T05:36:01;17.80;99.90
36132;DHT22;22185;48.738;9.324;2022-08-02T05:38:03;17.90;99.90
36132;DHT22;22185;48.738;9.324;2022-08-02T05:40:04;18.00;99.90
36132;DHT22;22185;48.738;9.324;2022-08-02T05:42:13;18.10;99.90
36132;DHT22;22185;48.738;9.324;2022-08-02T05:44:17;18.10;99.90
36132;DHT22;22185;48.738;9.324;2022-08-02T05:46:19;18.10;99.90
36132;DHT22;22185;48.738;9.324;2022-08-02T05:48:21;18.20;99.90
36132;DHT22;22185;48.738;9.324;2022-08-02T05:50:28;18.20;99.90
36132;DHT22;22185;48.738;9.324;2022-08-02T05:54:54;18.30;99.90
36132;DHT22;22185;48.738;9.324;2022-08-02T05:57:04;18.40;99.90
36132;DHT22;22185;48.738;9.324;2022-08-02T06:02:22;18.50;99.90
36132;DHT22;22185;48.738;9.324;2022-08-02T06:04:58;18.60;99.90
36132;DHT22;22185;48.738;9.324;2022-08-02T06:07:03;18.50;99.90
36132;DHT22;22185;48.738;9.324;2022-08-02T06:09:14;18.60;99.90
36132;DHT22;22185;48.738;9.324;2022-08-02T06:11:22;18.50;99.90
36132;DHT22;22185;48.738;9.324;2022-08-02T06:13:24;18.60;99.90
36132;DHT22;22185;48.738;9.324;2022-08-02T06:15:26;18.50;99.90
36132;DHT22;22185;48.738;9.324;2022-08-02T06:17:30;18.60;99.90
36132;DHT22;22185;48.738;9.324;2022-08-02T06:19:32;18.70;99.90
36132;DHT22;22185;48.738;9.324;2022-08-02T06:21:53;18.60;99.90
36132;DHT22;22185;48.738;9.324;2022-08-02T06:24:17;18.70;99.90
36132;DHT22;22185;48.738;9.324;2022-08-02T06:26:22;18.80;99.90
36132;DHT22;22185;48.738;9.324;2022-08-02T06:28:25;18.90;99.90
36132;DHT22;22185;48.738;9.324;2022-08-02T06:30:28;18.90;99.90
36132;DHT22;22185;48.738;9.324;2022-08-02T06:32:31;18.90;99.90
36132;DHT22;22185;48.738;9.324;2022-08-02T06:34:38;18.90;99.90
36132;DHT22;22185;48.738;9.324;2022-08-02T06:39:01;18.90;99.90
36132;DHT22;22185;48.738;9.324;2022-08-02T06:41:09;18.90;99.90
36132;DHT22;22185;48.738;9.324;2022-08-02T06:45:24;19.00;99.90
36132;DHT22;22185;48.738;9.324;2022-08-02T06:47:25;18.90;99.90
36132;DHT22;22185;48.738;9.324;2022-08-02T06:49:28;19.00;99.90
36132;DHT22;22185;48.738;9.324;2022-08-02T06:51:53;19.00;99.90
36132;DHT22;22185;48.738;9.324;2022-08-02T06:53:58;19.00;99.90
36132;DHT22;22185;48.738;9.324;2022-08-02T06:55:59;19.00;99.90
36132;DHT22;22185;48.738;9.324;2022-08-02T06:58:01;19.00;99.90
36132;DHT22;22185;48.738;9.324;2022-08-02T07:00:05;19.00;99.90
36132;DHT22;22185;48.738;9.324;2022-08-02T07:02:10;19.10;99.90
36132;DHT22;22185;48.738;9.324;2022-08-02T07:04:13;19.10;99.90
36132;DHT22;22185;48.738;9.324;2022-08-02T07:06:19;19.10;99.90
36132;DHT22;22185;48.738;9.324;2022-08-02T07:08:20;19.10;99.90
36132;DHT22;22185;48.738;9.324;2022-08-02T07:10:23;19.10;99.90
36132;DHT22;22185;48.738;9.324;2022-08-02T07:12:26;19.20;99.90
36132;DHT22;22185;48.738;9.324;2022-08-02T07:14:28;19.20;99.90
36132;DHT22;22185;48.738;9.324;2022-08-02T07:16:30;19.30;99.90
36132;DHT22;22185;48.738;9.324;2022-08-02T07:18:31;19.30;99.90
36132;DHT22;22185;48.738;9.324;2022-08-02T07:20:34;19.40;99.90
36132;DHT22;22185;48.738;9.324;2022-08-02T07:22:36;19.40;99.90
36132;DHT22;22185;48.738;9.324;2022-08-02T07:24:38;19.40;99.90
36132;DHT22;22185;48.738;9.324;2022-08-02T07:26:40;19.50;99.90
36132;DHT22;22185;48.738;9.324;2022-08-02T07:29:02;19.50;99.90
36132;DHT22;22185;48.738;9.324;2022-08-02T07:31:07;19.50;99.90
36132;DHT22;22185;48.738;9.324;2022-08-02T07:33:09;19.60;99.90
36132;DHT22;22185;48.738;9.324;2022-08-02T07:35:36;19.60;99.90
36132;DHT22;22185;48.738;9.324;2022-08-02T07:37:40;19.70;99.90
36132;DHT22;22185;48.738;9.324;2022-08-02T07:39:58;19.80;99.90
36132;DHT22;22185;48.738;9.324;2022-08-02T07:42:03;19.80;99.90
36132;DHT22;22185;48.738;9.324;2022-08-02T07:44:07;19.90;99.90
36132;DHT22;22185;48.738;9.324;2022-08-02T07:46:09;20.00;99.90
36132;DHT22;22185;48.738;9.324;2022-08-02T07:48:11;20.00;99.90
36132;DHT22;22185;48.738;9.324;2022-08-02T07:50:15;20.20;99.90
36132;DHT22;22185;48.738;9.324;2022-08-02T07:52:17;20.20;99.90
36132;DHT22;22185;48.738;9.324;2022-08-02T07:54:19;20.20;99.90
36132;DHT22;22185;48.738;9.324;2022-08-02T07:56:21;20.30;99.90
36132;DHT22;22185;48.738;9.324;2022-08-02T07:58:23;20.40;99.90
36132;DHT22;22185;48.738;9.324;2022-08-02T08:00:28;20.40;99.90
36132;DHT22;22185;48.738;9.324;2022-08-02T08:02:29;20.30;99.90
36132;DHT22;22185;48.738;9.324;2022-08-02T08:04:31;20.40;99.90
36132;DHT22;22185;48.738;9.324;2022-08-02T08:06:33;20.50;99.90
36132;DHT22;22185;48.738;9.324;2022-08-02T08:08:35;20.50;99.90
36132;DHT22;22185;48.738;9.324;2022-08-02T08:10:39;20.50;99.90
36132;DHT22;22185;48.738;9.324;2022-08-02T08:12:41;20.50;99.90
36132;DHT22;22185;48.738;9.324;2022-08-02T08:14:44;20.60;99.90
36132;DHT22;22185;48.738;9.324;2022-08-02T08:16:46;20.60;99.90
36132;DHT22;22185;48.738;9.324;2022-08-02T08:18:47;20.50;99.90
36132;DHT22;22185;48.738;9.324;2022-08-02T08:20:49;20.50;99.90
36132;DHT22;22185;48.738;9.324;2022-08-02T08:22:52;20.50;99.90
36132;DHT22;22185;48.738;9.324;2022-08-02T08:24:53;20.60;99.90
36132;DHT22;22185;48.738;9.324;2022-08-02T08:26:55;20.70;99.90
36132;DHT22;22185;48.738;9.324;2022-08-02T08:28:57;20.60;99.90
36132;DHT22;22185;48.738;9.324;2022-08-02T08:30:59;20.60;99.90
36132;DHT22;22185;48.738;9.324;2022-08-02T08:33:01;20.70;99.90
36132;DHT22;22185;48.738;9.324;2022-08-02T08:35:03;20.80;99.90
36132;DHT22;22185;48.738;9.324;2022-08-02T08:37:07;20.90;99.90
36132;DHT22;22185;48.738;9.324;2022-08-02T08:39:09;20.90;99.90
36132;DHT22;22185;48.738;9.324;2022-08-02T08:41:11;21.10;99.90
36132;DHT22;22185;48.738;9.324;2022-08-02T08:43:15;21.40;99.90
36132;DHT22;22185;48.738;9.324;2022-08-02T08:45:17;21.20;99.90
36132;DHT22;22185;48.738;9.324;2022-08-02T08:47:22;21.30;99.90
36132;DHT22;22185;48.738;9.324;2022-08-02T08:49:31;21.40;99.90
36132;DHT22;22185;48.738;9.324;2022-08-02T08:51:39;21.50;99.90
36132;DHT22;22185;48.738;9.324;2022-08-02T08:53:48;21.50;99.90
36132;DHT22;22185;48.738;9.324;2022-08-02T08:55:52;21.50;99.90
36132;DHT22;22185;48.738;9.324;2022-08-02T08:57:57;21.60;99.90
36132;DHT22;22185;48.738;9.324;2022-08-02T08:59:59;21.60;99.90
36132;DHT22;22185;48.738;9.324;2022-08-02T09:02:01;21.70;99.90
36132;DHT22;22185;48.738;9.324;2022-08-02T09:04:23;21.80;99.90
36132;DHT22;22185;48.738;9.324;2022-08-02T09:06:25;21.80;99.90
36132;DHT22;22185;48.738;9.324;2022-08-02T09:08:26;21.80;99.90
36132;DHT22;22185;48.738;9.324;2022-08-02T09:10:35;21.80;99.90
36132;DHT22;22185;48.738;9.324;2022-08-02T09:12:37;21.80;99.90
36132;DHT22;22185;48.738;9.324;2022-08-02T09:14:39;21.90;99.90
36132;DHT22;22185;48.738;9.324;2022-08-02T09:16:42;21.90;99.90
36132;DHT22;22185;48.738;9.324;2022-08-02T09:18:44;22.00;99.90
36132;DHT22;22185;48.738;9.324;2022-08-02T09:20:53;22.10;99.90
36132;DHT22;22185;48.738;9.324;2022-08-02T09:23:09;22.30;99.90
36132;DHT22;22185;48.738;9.324;2022-08-02T09:25:14;22.40;99.90
36132;DHT22;22185;48.738;9.324;2022-08-02T09:27:18;22.40;99.90
36132;DHT22;22185;48.738;9.324;2022-08-02T09:29:23;22.60;99.90
36132;DHT22;22185;48.738;9.324;2022-08-02T09:31:26;22.60;99.90
36132;DHT22;22185;48.738;9.324;2022-08-02T09:33:28;22.70;99.90
36132;DHT22;22185;48.738;9.324;2022-08-02T09:35:35;22.90;99.90
36132;DHT22;22185;48.738;9.324;2022-08-02T09:38:13;23.00;99.90
36132;DHT22;22185;48.738;9.324;2022-08-02T09:40:15;23.10;99.90
36132;DHT22;22185;48.738;9.324;2022-08-02T09:42:17;23.00;99.90
36132;DHT22;22185;48.738;9.324;2022-08-02T09:44:19;23.10;99.90
36132;DHT22;22185;48.738;9.324;2022-08-02T09:46:25;23.00;99.90
36132;DHT22;22185;48.738;9.324;2022-08-02T09:48:27;23.20;99.90
36132;DHT22;22185;48.738;9.324;2022-08-02T09:50:30;23.40;99.90
36132;DHT22;22185;48.738;9.324;2022-08-02T09:52:32;23.40;99.90
36132;DHT22;22185;48.738;9.324;2022-08-02T09:54:43;23.60;99.90
36132;DHT22;22185;48.738;9.324;2022-08-02T09:56:46;23.50;99.90
36132;DHT22;22185;48.738;9.324;2022-08-02T09:58:49;23.70;99.90
36132;DHT22;22185;48.738;9.324;2022-08-02T10:00:54;23.70;99.90
36132;DHT22;22185;48.738;9.324;2022-08-02T10:03:10;23.90;99.90
36132;DHT22;22185;48.738;9.324;2022-08-02T10:05:29;24.20;99.90
36132;DHT22;22185;48.738;9.324;2022-08-02T10:07:36;24.30;99.90
36132;DHT22;22185;48.738;9.324;2022-08-02T10:09:38;24.40;99.90
36132;DHT22;22185;48.738;9.324;2022-08-02T10:11:48;24.50;99.90
36132;DHT22;22185;48.738;9.324;2022-08-02T10:13:51;24.50;99.90
36132;DHT22;22185;48.738;9.324;2022-08-02T10:15:55;24.80;99.90
36132;DHT22;22185;48.738;9.324;2022-08-02T10:17:57;24.90;99.90
36132;DHT22;22185;48.738;9.324;2022-08-02T10:19:59;24.80;99.90
36132;DHT22;22185;48.738;9.324;2022-08-02T10:22:09;24.90;99.90
36132;DHT22;22185;48.738;9.324;2022-08-02T10:24:17;25.20;99.90
36132;DHT22;22185;48.738;9.324;2022-08-02T10:26:20;25.50;99.90
36132;DHT22;22185;48.738;9.324;2022-08-02T10:28:26;25.60;99.90
36132;DHT22;22185;48.738;9.324;2022-08-02T10:30:36;25.70;99.90
36132;DHT22;22185;48.738;9.324;2022-08-02T10:32:42;25.70;99.90
36132;DHT22;22185;48.738;9.324;2022-08-02T10:34:56;25.80;99.90
36132;DHT22;22185;48.738;9.324;2022-08-02T10:37:20;25.80;99.90
36132;DHT22;22185;48.738;9.324;2022-08-02T10:39:22;26.00;99.90
36132;DHT22;22185;48.738;9.324;2022-08-02T10:43:47;26.10;99.90
36132;DHT22;22185;48.738;9.324;2022-08-02T10:45:49;26.00;99.90
36132;DHT22;22185;48.738;9.324;2022-08-02T10:49:59;26.70;99.90
36132;DHT22;22185;48.738;9.324;2022-08-02T10:52:05;26.70;99.90
36132;DHT22;22185;48.738;9.324;2022-08-02T10:54:07;26.70;99.90
36132;DHT22;22185;48.738;9.324;2022-08-02T10:56:09;26.80;99.90
36132;DHT22;22185;48.738;9.324;2022-08-02T10:58:16;26.90;99.90
36132;DHT22;22185;48.738;9.324;2022-08-02T11:02:34;28.00;99.90
36132;DHT22;22185;48.738;9.324;2022-08-02T11:07:05;28.20;99.90
36132;DHT22;22185;48.738;9.324;2022-08-02T11:09:24;28.30;99.90
36132;DHT22;22185;48.738;9.324;2022-08-02T11:12:06;28.60;99.90
36132;DHT22;22185;48.738;9.324;2022-08-02T11:14:12;29.00;99.90
36132;DHT22;22185;48.738;9.324;2022-08-02T11:16:15;29.30;99.90
36132;DHT22;22185;48.738;9.324;2022-08-02T11:18:17;29.50;99.90
36132;DHT22;22185;48.738;9.324;2022-08-02T11:20:20;29.80;99.90
36132;DHT22;22185;48.738;9.324;2022-08-02T11:22:23;30.10;99.90
36132;DHT22;22185;48.738;9.324;2022-08-02T11:24:36;29.70;99.90
36132;DHT22;22185;48.738;9.324;2022-08-02T11:26:42;29.30;99.90
36132;DHT22;22185;48.738;9.324;2022-08-02T11:28:48;29.30;99.90
36132;DHT22;22185;48.738;9.324;2022-08-02T11:30:58;29.80;99.90
36132;DHT22;22185;48.738;9.324;2022-08-02T11:33:00;30.20;99.90
36132;DHT22;22185;48.738;9.324;2022-08-02T11:35:02;30.50;99.90
36132;DHT22;22185;48.738;9.324;2022-08-02T11:37:04;31.00;99.90
36132;DHT22;22185;48.738;9.324;2022-08-02T11:39:11;30.50;99.90
36132;DHT22;22185;48.738;9.324;2022-08-02T11:41:20;30.80;99.90
36132;DHT22;22185;48.738;9.324;2022-08-02T11:43:42;30.90;99.90
36132;DHT22;22185;48.738;9.324;2022-08-02T11:45:50;31.00;99.90
36132;DHT22;22185;48.738;9.324;2022-08-02T11:47:54;31.10;99.90
36132;DHT22;22185;48.738;9.324;2022-08-02T11:50:09;31.40;99.90
36132;DHT22;22185;48.738;9.324;2022-08-02T11:52:13;31.30;99.90
36132;DHT22;22185;48.738;9.324;2022-08-02T11:54:22;31.30;99.90
36132;DHT22;22185;48.738;9.324;2022-08-02T11:56:26;31.60;99.90
36132;DHT22;22185;48.738;9.324;2022-08-02T11:58:29;31.90;99.90
36132;DHT22;22185;48.738;9.324;2022-08-02T12:00:31;32.00;99.90
36132;DHT22;22185;48.738;9.324;2022-08-02T12:02:32;33.10;99.90
36132;DHT22;22185;48.738;9.324;2022-08-02T12:04:36;33.60;99.90
36132;DHT22;22185;48.738;9.324;2022-08-02T12:06:39;33.90;99.90
36132;DHT22;22185;48.738;9.324;2022-08-02T12:08:41;33.10;99.90
36132;DHT22;22185;48.738;9.324;2022-08-02T12:10:55;33.60;99.90
36132;DHT22;22185;48.738;9.324;2022-08-02T12:12:58;34.60;99.90
36132;DHT22;22185;48.738;9.324;2022-08-02T12:15:01;35.00;99.90
36132;DHT22;22185;48.738;9.324;2022-08-02T12:17:03;34.00;99.90
36132;DHT22;22185;48.738;9.324;2022-08-02T12:19:24;32.60;99.90
36132;DHT22;22185;48.738;9.324;2022-08-02T12:21:30;32.40;99.90
36132;DHT22;22185;48.738;9.324;2022-08-02T12:23:36;32.70;99.90
36132;DHT22;22185;48.738;9.324;2022-08-02T12:26:05;33.70;99.90
36132;DHT22;22185;48.738;9.324;2022-08-02T12:28:19;33.50;99.90
36132;DHT22;22185;48.738;9.324;2022-08-02T12:30:23;35.20;99.90
36132;DHT22;22185;48.738;9.324;2022-08-02T12:32:28;36.30;97.30
36132;DHT22;22185;48.738;9.324;2022-08-02T12:34:31;36.60;99.90
36132;DHT22;22185;48.738;9.324;2022-08-02T12:36:34;37.10;99.90
36132;DHT22;22185;48.738;9.324;2022-08-02T12:38:35;37.30;97.60
36132;DHT22;22185;48.738;9.324;2022-08-02T12:40:38;37.00;94.30
36132;DHT22;22185;48.738;9.324;2022-08-02T12:44:59;36.80;93.40
36132;DHT22;22185;48.738;9.324;2022-08-02T12:47:06;36.00;97.90
36132;DHT22;22185;48.738;9.324;2022-08-02T12:49:16;36.80;93.70
36132;DHT22;22185;48.738;9.324;2022-08-02T12:53:48;36.60;91.10
36132;DHT22;22185;48.738;9.324;2022-08-02T12:56:00;37.90;95.90
36132;DHT22;22185;48.738;9.324;2022-08-02T12:58:04;38.20;90.90
36132;DHT22;22185;48.738;9.324;2022-08-02T13:00:06;38.20;94.50
36132;DHT22;22185;48.738;9.324;2022-08-02T13:02:11;37.70;89.40
36132;DHT22;22185;48.738;9.324;2022-08-02T13:04:14;38.20;91.40
36132;DHT22;22185;48.738;9.324;2022-08-02T13:06:18;38.00;93.40
36132;DHT22;22185;48.738;9.324;2022-08-02T13:08:40;37.70;93.90
36132;DHT22;22185;48.738;9.324;2022-08-02T13:10:43;37.20;90.20
36132;DHT22;22185;48.738;9.324;2022-08-02T13:12:45;37.50;93.00
36132;DHT22;22185;48.738;9.324;2022-08-02T13:14:47;36.80;90.30
36132;DHT22;22185;48.738;9.324;2022-08-02T13:16:49;36.20;91.90
36132;DHT22;22185;48.738;9.324;2022-08-02T13:18:51;36.20;93.90
36132;DHT22;22185;48.738;9.324;2022-08-02T13:20:56;34.40;93.40
36132;DHT22;22185;48.738;9.324;2022-08-02T13:22:59;34.30;93.60
36132;DHT22;22185;48.738;9.324;2022-08-02T13:25:05;35.20;91.10
36132;DHT22;22185;48.738;9.324;2022-08-02T13:27:07;35.90;90.60
36132;DHT22;22185;48.738;9.324;2022-08-02T13:29:10;36.80;91.00
36132;DHT22;22185;48.738;9.324;2022-08-02T13:31:12;36.90;90.10
36132;DHT22;22185;48.738;9.324;2022-08-02T13:33:34;36.70;91.50
36132;DHT22;22185;48.738;9.324;2022-08-02T13:35:36;37.30;89.50
36132;DHT22;22185;48.738;9.324;2022-08-02T13:37:41;36.50;84.10
36132;DHT22;22185;48.738;9.324;2022-08-02T13:39:43;36.40;91.20
36132;DHT22;22185;48.738;9.324;2022-08-02T13:42:05;37.10;84.20
36132;DHT22;22185;48.738;9.324;2022-08-02T13:44:07;37.20;91.30
36132;DHT22;22185;48.738;9.324;2022-08-02T13:46:11;37.50;83.30
36132;DHT22;22185;48.738;9.324;2022-08-02T13:48:13;37.80;83.20